createdAt,value
2022-12-20T00:01:57.565Z,12.13
2022-12-20T00:04:26.049Z,11.67
2022-12-20T00:06:54.481Z,11.83
2022-12-20T00:09:23.058Z,12.50
2022-12-20T00:11:51.572Z,12.30
2022-12-20T00:14:21.379Z,11.93
2022-12-20T00:16:49.867Z,11.00
2022-12-20T00:19:18.556Z,11.73
2022-12-20T00:21:46.990Z,11.27
2022-12-20T00:24:19.300Z,11.70
2022-12-20T00:26:50.724Z,11.83
2022-12-20T00:29:20.880Z,12.03
2022-12-20T00:31:49.615Z,11.83
2022-12-20T00:34:18.034Z,10.63
2022-12-20T00:36:46.357Z,12.17
2022-12-20T00:39:14.786Z,13.07
2022-12-20T00:41:43.797Z,12.93
2022-12-20T00:44:12.242Z,12.27
2022-12-20T00:46:42.306Z,11.90
2022-12-20T00:49:10.820Z,12.27
2022-12-20T00:51:39.259Z,13.93
2022-12-20T00:54:07.685Z,12.60
2022-12-20T00:56:36.088Z,12.77
2022-12-20T00:59:04.478Z,13.20
2022-12-20T01:01:35.077Z,12.37
2022-12-20T01:04:05.632Z,11.50
2022-12-20T01:06:34.390Z,12.77
2022-12-20T01:09:02.988Z,13.13
2022-12-20T01:11:33.057Z,13.70
2022-12-20T01:14:03.630Z,11.83
2022-12-20T01:16:34.793Z,13.50
2022-12-20T01:19:04.952Z,13.43
2022-12-20T01:21:33.776Z,12.60
2022-12-20T01:24:03.041Z,12.63
2022-12-20T01:26:31.980Z,12.20
2022-12-20T01:29:02.208Z,11.83
2022-12-20T01:31:32.295Z,12.10
2022-12-20T01:34:02.203Z,12.03
2022-12-20T01:36:34.290Z,11.73
2022-12-20T01:39:06.622Z,11.97
2022-12-20T01:41:36.329Z,12.40
2022-12-20T01:44:06.548Z,11.50
2022-12-20T01:46:37.589Z,12.80
2022-12-20T01:49:11.468Z,12.93
2022-12-20T01:51:45.017Z,10.93
2022-12-20T01:54:18.144Z,12.13
2022-12-20T01:56:52.803Z,11.07
2022-12-20T01:59:21.643Z,13.00
2022-12-20T02:01:50.374Z,12.20
2022-12-20T02:04:19.192Z,12.67
2022-12-20T02:06:49.078Z,11.30
2022-12-20T02:09:18.058Z,12.37
2022-12-20T02:11:58.732Z,12.53
2022-12-20T02:14:51.560Z,12.37
2022-12-20T02:17:32.564Z,9.43
2022-12-20T02:20:40.386Z,13.40
2022-12-20T02:23:46.341Z,13.70
2022-12-20T02:26:38.424Z,11.93
2022-12-20T02:29:22.860Z,12.80
2022-12-20T02:32:01.058Z,11.57
2022-12-20T02:34:32.607Z,12.23
2022-12-20T02:37:01.093Z,11.67
2022-12-20T02:39:32.967Z,10.83
2022-12-20T02:42:05.616Z,11.27
2022-12-20T02:44:54.056Z,11.83
2022-12-20T02:47:28.238Z,11.93
2022-12-20T02:49:57.691Z,11.33
2022-12-20T02:52:31.215Z,12.10
2022-12-20T02:55:00.235Z,10.83
2022-12-20T02:57:33.884Z,10.87
2022-12-20T03:00:06.823Z,10.57
2022-12-20T03:02:51.692Z,11.40
2022-12-20T03:05:23.569Z,10.90
2022-12-20T03:07:52.383Z,11.67
2022-12-20T03:10:21.232Z,10.97
2022-12-20T03:12:49.718Z,11.77
2022-12-20T03:15:18.305Z,11.57
2022-12-20T03:17:48.181Z,11.50
2022-12-20T03:20:16.749Z,12.23
2022-12-20T03:22:45.177Z,11.70
2022-12-20T03:25:13.637Z,12.13
2022-12-20T03:27:42.106Z,11.23
2022-12-20T03:30:11.108Z,11.17
2022-12-20T03:32:39.771Z,12.30
2022-12-20T03:35:10.623Z,12.00
2022-12-20T03:37:39.250Z,11.93
2022-12-20T03:40:09.406Z,11.43
2022-12-20T03:42:38.411Z,11.57
2022-12-20T03:45:07.966Z,12.27
2022-12-20T03:47:36.400Z,12.83
2022-12-20T03:50:05.143Z,12.23
2022-12-20T03:52:35.248Z,12.20
2022-12-20T03:55:03.747Z,12.33
2022-12-20T03:57:32.336Z,12.37
2022-12-20T04:00:00.738Z,12.30
2022-12-20T04:02:29.382Z,12.67
2022-12-20T04:04:57.964Z,12.30
2022-12-20T04:07:26.364Z,13.00
2022-12-20T04:09:56.527Z,12.37
2022-12-20T04:12:25.198Z,12.90
2022-12-20T04:14:53.649Z,12.13
2022-12-20T04:17:22.257Z,12.70
2022-12-20T04:19:50.704Z,11.30
2022-12-20T04:22:19.362Z,12.90
2022-12-20T04:24:48.101Z,12.53
2022-12-20T04:27:18.169Z,12.40
2022-12-20T04:29:46.621Z,12.77
2022-12-20T04:32:15.087Z,12.97
2022-12-20T04:34:43.436Z,13.20
2022-12-20T04:37:11.876Z,12.77
2022-12-20T04:39:40.398Z,12.17
2022-12-20T04:42:08.846Z,12.73
2022-12-20T04:44:38.765Z,13.10
2022-12-20T04:47:07.272Z,12.03
2022-12-20T04:49:35.892Z,13.17
2022-12-20T04:52:18.172Z,13.13
2022-12-20T04:54:46.786Z,13.17
2022-12-20T04:57:15.537Z,13.20
2022-12-20T04:59:45.543Z,13.47
2022-12-20T05:02:14.173Z,14.23
2022-12-20T05:04:43.499Z,13.30
2022-12-20T05:07:11.934Z,12.80
2022-12-20T05:09:40.410Z,12.73
2022-12-20T05:12:09.134Z,12.87
2022-12-20T05:14:37.597Z,12.53
2022-12-20T05:17:07.414Z,12.93
2022-12-20T05:19:36.010Z,12.73
2022-12-20T05:22:21.680Z,13.27
2022-12-20T05:25:07.348Z,14.43
2022-12-20T05:27:35.798Z,13.43
2022-12-20T05:30:04.634Z,13.83
2022-12-20T05:32:34.987Z,13.60
2022-12-20T05:35:03.543Z,13.33
2022-12-20T05:37:35.536Z,14.73
2022-12-20T05:40:04.833Z,14.27
2022-12-20T05:42:33.356Z,15.27
2022-12-20T05:45:02.250Z,14.60
2022-12-20T05:47:33.996Z,14.07
2022-12-20T05:50:04.285Z,15.43
2022-12-20T05:52:32.765Z,13.37
2022-12-20T05:55:01.312Z,15.13
2022-12-20T05:57:29.737Z,14.43
2022-12-20T05:59:58.184Z,14.87
2022-12-20T06:02:26.730Z,14.33
2022-12-20T06:04:55.818Z,13.40
2022-12-20T06:07:25.646Z,15.67
2022-12-20T06:09:54.058Z,14.27
2022-12-20T06:12:23.330Z,12.20
2022-12-20T06:14:52.107Z,14.97
2022-12-20T06:17:22.107Z,16.03
2022-12-20T06:19:50.486Z,14.37
2022-12-20T06:22:19.161Z,16.13
2022-12-20T06:24:49.141Z,14.77
2022-12-20T06:27:18.850Z,13.33
2022-12-20T06:29:52.148Z,14.10
2022-12-20T06:32:20.453Z,14.60
2022-12-20T06:34:48.908Z,15.13
2022-12-20T06:37:17.732Z,13.93
2022-12-20T06:39:46.127Z,15.47
2022-12-20T06:42:16.277Z,15.27
2022-12-20T06:44:44.839Z,13.90
2022-12-20T06:47:13.921Z,14.20
2022-12-20T06:49:42.419Z,13.33
2022-12-20T06:52:10.855Z,14.80
2022-12-20T06:54:39.240Z,13.70
2022-12-20T06:57:08.176Z,12.67
2022-12-20T06:59:37.989Z,14.47
2022-12-20T07:02:08.189Z,15.43
2022-12-20T07:04:38.071Z,13.27
2022-12-20T07:07:06.984Z,13.77
2022-12-20T07:09:35.606Z,14.07
2022-12-20T07:12:04.000Z,15.10
2022-12-20T07:14:32.380Z,14.87
2022-12-20T07:17:02.318Z,14.40
2022-12-20T07:19:31.014Z,15.00
2022-12-20T07:21:59.471Z,15.27
2022-12-20T07:24:27.965Z,14.27
2022-12-20T07:26:56.422Z,14.40
2022-12-20T07:29:25.952Z,14.40
2022-12-20T07:31:54.887Z,14.47
2022-12-20T07:34:24.984Z,13.87
2022-12-20T07:36:54.554Z,16.37
2022-12-20T07:39:22.969Z,14.53
2022-12-20T07:41:54.594Z,14.50
2022-12-20T07:44:23.569Z,13.63
2022-12-20T07:46:52.055Z,14.67
2022-12-20T07:49:20.454Z,13.40
2022-12-20T07:51:53.254Z,13.93
2022-12-20T07:54:24.315Z,14.87
2022-12-20T07:56:56.369Z,14.77
2022-12-20T07:59:29.864Z,14.57
2022-12-20T08:02:04.349Z,13.40
2022-12-20T08:04:35.634Z,13.60
2022-12-20T08:07:05.773Z,15.17
2022-12-20T08:09:40.298Z,13.93
2022-12-20T08:12:12.350Z,15.03
2022-12-20T08:14:41.358Z,14.60
2022-12-20T08:17:09.696Z,14.20
2022-12-20T08:19:38.983Z,13.53
2022-12-20T08:22:08.805Z,14.83
2022-12-20T08:24:37.241Z,13.93
2022-12-20T08:27:05.670Z,15.00
2022-12-20T08:29:34.108Z,14.90
2022-12-20T08:32:02.490Z,14.17
2022-12-20T08:34:31.410Z,15.33
2022-12-20T08:36:59.807Z,14.50
2022-12-20T08:39:29.572Z,13.87
2022-12-20T08:41:58.075Z,14.43
2022-12-20T08:44:26.919Z,14.23
2022-12-20T08:46:55.495Z,13.70
2022-12-20T08:49:23.963Z,14.67
2022-12-20T08:51:52.574Z,14.13
2022-12-20T08:54:21.128Z,13.97
2022-12-20T08:56:51.056Z,13.70
2022-12-20T08:59:19.922Z,15.13
2022-12-20T09:01:48.367Z,13.43
2022-12-20T09:04:17.020Z,14.33
2022-12-20T09:06:45.593Z,15.27
2022-12-20T09:09:13.974Z,22.70
2022-12-20T09:11:42.567Z,15.17
2022-12-20T09:14:12.445Z,16.03
2022-12-20T09:16:40.815Z,15.80
2022-12-20T09:19:09.717Z,17.17
2022-12-20T09:21:38.115Z,17.53
2022-12-20T09:24:06.899Z,16.17
2022-12-20T09:26:36.247Z,21.07
2022-12-20T09:29:05.427Z,15.50
2022-12-20T09:31:35.449Z,14.80
2022-12-20T09:34:03.908Z,15.10
2022-12-20T09:36:33.668Z,15.10
2022-12-20T09:39:02.069Z,15.80
2022-12-20T09:41:34.952Z,15.20
2022-12-20T09:44:12.634Z,14.87
2022-12-20T09:46:43.345Z,13.23
2022-12-20T09:49:16.741Z,18.80
2022-12-20T09:52:01.655Z,13.80
2022-12-20T09:54:39.448Z,16.67
2022-12-20T09:57:17.567Z,15.70
2022-12-20T09:59:49.717Z,14.97
2022-12-20T10:02:55.555Z,14.47
2022-12-20T10:05:17.405Z,14.60
2022-12-20T10:07:55.076Z,16.73
2022-12-20T10:10:41.092Z,15.83
2022-12-20T10:13:24.364Z,15.27
2022-12-20T10:15:56.504Z,15.70
2022-12-20T10:18:44.543Z,14.13
2022-12-20T10:21:21.858Z,14.57
2022-12-20T10:24:01.116Z,14.30
2022-12-20T10:26:30.287Z,15.30
2022-12-20T10:28:58.654Z,15.47
2022-12-20T10:31:27.170Z,23.13
2022-12-20T10:33:57.903Z,17.97
2022-12-20T10:36:28.830Z,16.80
2022-12-20T10:38:58.774Z,20.73
2022-12-20T10:41:29.142Z,15.90
2022-12-20T10:44:01.681Z,17.03
2022-12-20T10:46:39.333Z,17.47
2022-12-20T10:49:31.181Z,16.90
2022-12-20T10:52:02.274Z,16.10
2022-12-20T10:54:33.131Z,15.43
2022-12-20T10:57:04.762Z,15.57
2022-12-20T10:59:36.619Z,14.77
2022-12-20T11:02:29.231Z,14.60
2022-12-20T11:05:03.843Z,14.57
2022-12-20T11:07:36.063Z,15.83
2022-12-20T11:10:19.796Z,15.00
2022-12-20T11:12:54.771Z,14.43
2022-12-20T11:15:34.294Z,14.73
2022-12-20T11:18:08.017Z,14.47
2022-12-20T11:20:44.107Z,14.60
2022-12-20T11:23:27.475Z,15.47
2022-12-20T11:26:09.966Z,16.40
2022-12-20T11:28:56.148Z,16.10
2022-12-20T11:31:38.615Z,17.00
2022-12-20T11:34:19.406Z,17.87
2022-12-20T11:37:05.739Z,15.23
2022-12-20T11:39:40.435Z,15.50
2022-12-20T11:42:21.463Z,15.60
2022-12-20T11:45:08.508Z,15.77
2022-12-20T11:48:25.137Z,15.03
2022-12-20T11:51:03.292Z,16.83
2022-12-20T11:53:39.996Z,16.60
2022-12-20T11:56:14.773Z,15.37
2022-12-20T11:58:53.205Z,15.73
2022-12-20T12:01:27.245Z,15.00
2022-12-20T12:04:06.437Z,14.53
2022-12-20T12:06:49.410Z,14.43
2022-12-20T12:09:26.484Z,14.83
2022-12-20T12:12:07.857Z,15.43
2022-12-20T12:14:48.569Z,14.90
2022-12-20T12:17:28.011Z,13.90
2022-12-20T12:20:04.167Z,15.63
2022-12-20T12:22:37.380Z,14.37
2022-12-20T12:25:15.672Z,15.17
2022-12-20T12:27:44.189Z,15.73
2022-12-20T12:30:15.303Z,14.63
2022-12-20T12:32:48.333Z,15.17
2022-12-20T12:35:40.518Z,13.53
2022-12-20T12:38:49.900Z,14.53
2022-12-20T12:41:54.536Z,13.80
2022-12-20T12:44:36.245Z,14.27
2022-12-20T12:47:13.060Z,15.33
2022-12-20T12:49:42.583Z,13.90
2022-12-20T12:52:35.508Z,13.70
2022-12-20T12:55:05.381Z,15.00
2022-12-20T12:57:58.240Z,15.07
2022-12-20T13:00:52.431Z,15.97
2022-12-20T13:03:41.200Z,15.60
2022-12-20T13:07:06.252Z,16.60
2022-12-20T13:09:44.043Z,17.73
2022-12-20T13:12:52.011Z,16.10
2022-12-20T13:15:50.670Z,16.07
2022-12-20T13:18:24.646Z,16.77
2022-12-20T13:21:32.704Z,16.50
2022-12-20T13:24:47.329Z,18.00
2022-12-20T13:27:35.499Z,15.27
2022-12-20T13:30:30.797Z,16.23
2022-12-20T13:33:24.599Z,16.60
2022-12-20T13:36:27.291Z,15.60
2022-12-20T13:38:58.680Z,16.83
2022-12-20T13:41:36.878Z,16.17
2022-12-20T13:44:21.147Z,17.07
2022-12-20T13:46:55.706Z,16.07
2022-12-20T13:49:29.203Z,16.93
2022-12-20T13:52:18.705Z,17.67
2022-12-20T13:54:50.282Z,15.53
2022-12-20T13:57:22.908Z,17.17
2022-12-20T14:00:01.812Z,17.97
2022-12-20T14:02:37.726Z,15.83
2022-12-20T14:05:15.157Z,17.70
2022-12-20T14:07:44.713Z,15.97
2022-12-20T14:10:21.305Z,15.53
2022-12-20T14:12:54.076Z,16.10
2022-12-20T14:15:25.003Z,15.60
2022-12-20T14:17:53.371Z,15.67
2022-12-20T14:20:26.806Z,16.57
2022-12-20T14:23:04.661Z,15.87
2022-12-20T14:25:39.187Z,16.83
2022-12-20T14:28:21.556Z,17.17
2022-12-20T14:30:55.741Z,16.70
2022-12-20T14:33:31.223Z,16.30
2022-12-20T14:36:10.462Z,16.47
2022-12-20T14:38:40.328Z,14.53
2022-12-20T14:41:34.175Z,16.13
2022-12-20T14:44:07.179Z,16.93
2022-12-20T14:46:36.579Z,16.33
2022-12-20T14:49:19.973Z,16.00
2022-12-20T14:51:50.853Z,17.73
2022-12-20T14:54:56.606Z,15.53
2022-12-20T14:57:14.120Z,15.77
2022-12-20T14:59:42.552Z,13.83
2022-12-20T15:02:36.815Z,14.83
2022-12-20T15:05:24.528Z,15.53
2022-12-20T15:07:54.676Z,15.20
2022-12-20T15:10:24.082Z,20.47
2022-12-20T15:12:52.659Z,20.77
2022-12-20T15:15:29.148Z,16.57
2022-12-20T15:17:57.903Z,16.67
2022-12-20T15:20:26.340Z,17.90
2022-12-20T15:22:56.490Z,20.00
2022-12-20T15:25:25.165Z,19.03
2022-12-20T15:27:53.865Z,18.83
2022-12-20T15:30:22.593Z,18.83
2022-12-20T15:32:55.501Z,16.00
2022-12-20T15:35:25.845Z,16.73
2022-12-20T15:37:55.864Z,15.10
2022-12-20T15:40:24.944Z,14.57
2022-12-20T15:42:53.551Z,18.30
2022-12-20T15:45:29.214Z,16.83
2022-12-20T15:47:57.770Z,15.67
2022-12-20T15:50:26.490Z,16.20
2022-12-20T15:52:58.450Z,17.23
2022-12-20T15:55:27.351Z,18.20
2022-12-20T15:57:55.694Z,16.77
2022-12-20T16:00:25.730Z,18.03
2022-12-20T16:02:57.036Z,17.63
2022-12-20T16:05:25.666Z,18.37
2022-12-20T16:07:55.718Z,14.83
2022-12-20T16:10:24.471Z,16.60
2022-12-20T16:12:53.177Z,16.67
2022-12-20T16:15:23.730Z,16.70
2022-12-20T16:17:52.470Z,19.40
2022-12-20T16:20:21.119Z,16.27
2022-12-20T16:22:50.383Z,19.37
2022-12-20T16:25:32.668Z,15.30
2022-12-20T16:28:01.348Z,19.27
2022-12-20T16:30:30.004Z,21.00
2022-12-20T16:33:00.126Z,19.03
2022-12-20T16:35:31.558Z,16.60
2022-12-20T16:38:01.131Z,15.97
2022-12-20T16:40:32.933Z,16.57
2022-12-20T16:43:05.065Z,15.27
2022-12-20T16:45:34.938Z,15.37
2022-12-20T16:48:03.417Z,14.47
2022-12-20T16:50:32.175Z,15.57
2022-12-20T16:53:01.093Z,15.70
2022-12-20T16:55:39.325Z,15.87
2022-12-20T16:58:08.310Z,14.70
2022-12-20T17:00:37.506Z,15.40
2022-12-20T17:03:07.337Z,15.47
2022-12-20T17:05:37.875Z,14.40
2022-12-20T17:10:54.263Z,18.37
2022-12-20T17:13:22.616Z,15.80
2022-12-20T17:15:50.998Z,15.77
2022-12-20T17:18:19.585Z,14.33
2022-12-20T17:20:47.917Z,14.50
2022-12-20T17:26:04.860Z,15.17
2022-12-20T17:28:33.519Z,15.87
2022-12-20T17:31:07.878Z,16.13
2022-12-20T17:33:36.749Z,15.00
2022-12-20T17:36:05.695Z,15.03
2022-12-20T17:38:34.184Z,14.43
2022-12-20T17:41:04.004Z,14.80
2022-12-20T17:43:33.990Z,14.27
2022-12-20T17:46:04.538Z,16.00
2022-12-20T17:48:37.676Z,14.57
2022-12-20T17:51:16.313Z,13.80
2022-12-20T17:53:45.134Z,13.67
2022-12-20T17:56:17.806Z,14.07
2022-12-20T17:58:49.351Z,14.50
2022-12-20T18:01:23.544Z,15.57
2022-12-20T18:04:03.679Z,14.70
2022-12-20T18:06:34.653Z,15.07
2022-12-20T18:09:03.289Z,14.07
2022-12-20T18:11:33.404Z,15.07
2022-12-20T18:14:02.868Z,13.50
2022-12-20T18:16:35.461Z,15.13
2022-12-20T18:19:04.410Z,14.70
2022-12-20T18:21:32.897Z,14.53
2022-12-20T18:24:01.410Z,14.33
2022-12-20T18:26:32.178Z,15.23
2022-12-20T18:29:03.957Z,15.20
2022-12-20T18:31:34.472Z,14.73
2022-12-20T18:34:03.392Z,14.80
2022-12-20T18:36:34.778Z,14.63
2022-12-20T18:39:05.290Z,14.73
2022-12-20T18:41:34.246Z,14.47
2022-12-20T18:44:05.847Z,14.07
2022-12-20T18:46:35.140Z,15.63
2022-12-20T18:49:04.101Z,16.03
2022-12-20T18:51:36.891Z,14.27
2022-12-20T18:54:07.523Z,14.80
2022-12-20T18:56:37.748Z,15.27
2022-12-20T18:59:11.952Z,16.30
2022-12-20T19:01:43.255Z,16.13
2022-12-20T19:04:12.345Z,14.90
2022-12-20T19:06:41.540Z,15.97
2022-12-20T19:09:11.730Z,14.87
2022-12-20T19:11:40.559Z,13.63
2022-12-20T19:14:12.592Z,14.27
2022-12-20T19:16:41.770Z,14.93
2022-12-20T19:19:10.483Z,14.90
2022-12-20T19:21:41.894Z,13.97
2022-12-20T19:24:12.086Z,15.03
2022-12-20T19:26:40.543Z,14.43
2022-12-20T19:29:11.801Z,14.17
2022-12-20T19:31:40.431Z,13.80
2022-12-20T19:34:11.934Z,13.70
2022-12-20T19:36:41.947Z,14.80
2022-12-20T19:39:15.434Z,14.63
2022-12-20T19:41:50.625Z,13.57
2022-12-20T19:44:29.910Z,13.73
2022-12-20T19:47:08.439Z,14.80
2022-12-20T19:49:37.020Z,13.57
2022-12-20T19:52:06.396Z,14.40
2022-12-20T19:54:35.464Z,14.43
2022-12-20T19:57:04.072Z,13.97
2022-12-20T19:59:34.247Z,13.50
2022-12-20T20:02:02.944Z,14.77
2022-12-20T20:04:31.537Z,14.27
2022-12-20T20:07:00.203Z,14.33
2022-12-20T20:09:28.631Z,15.07
2022-12-20T20:11:57.220Z,14.50
2022-12-20T20:14:25.564Z,14.20
2022-12-20T20:16:55.344Z,14.47
2022-12-20T20:19:23.727Z,15.60
2022-12-20T20:21:52.178Z,15.17
2022-12-20T20:24:20.987Z,15.87
2022-12-20T20:26:49.445Z,15.20
2022-12-20T20:29:17.817Z,16.27
2022-12-20T20:31:46.483Z,15.17
2022-12-20T20:34:16.340Z,14.87
2022-12-20T20:36:45.066Z,14.67
2022-12-20T20:39:13.433Z,14.60
2022-12-20T20:41:42.993Z,14.53
2022-12-20T20:44:12.674Z,15.67
2022-12-20T20:46:41.392Z,14.50
2022-12-20T20:49:10.147Z,14.77
2022-12-20T20:51:40.203Z,14.53
2022-12-20T20:54:08.842Z,14.67
2022-12-20T20:56:37.312Z,14.40
2022-12-20T20:59:09.322Z,12.97
2022-12-20T21:01:40.464Z,14.80
2022-12-20T21:04:09.176Z,13.87
2022-12-20T21:06:42.058Z,16.70
2022-12-20T21:09:12.569Z,14.97
2022-12-20T21:11:41.398Z,14.10
2022-12-20T21:14:11.623Z,15.70
2022-12-20T21:16:41.881Z,14.50
2022-12-20T21:19:11.109Z,11.30
2022-12-20T21:21:39.496Z,14.53
2022-12-20T21:24:08.991Z,14.47
2022-12-20T21:26:38.810Z,12.97
2022-12-20T21:29:07.178Z,14.50
2022-12-20T21:31:36.381Z,15.50
2022-12-20T21:34:05.152Z,14.87
2022-12-20T21:36:33.560Z,17.07
2022-12-20T21:39:02.908Z,15.53
2022-12-20T21:41:31.866Z,16.03
2022-12-20T21:44:02.687Z,16.57
2022-12-20T21:46:32.152Z,14.20
2022-12-20T21:49:01.137Z,13.87
2022-12-20T21:51:31.306Z,14.27
2022-12-20T21:54:01.764Z,14.13
2022-12-20T21:56:31.865Z,14.40
2022-12-20T21:59:02.619Z,14.77
2022-12-20T22:01:32.326Z,14.00
2022-12-20T22:04:02.773Z,14.67
2022-12-20T22:06:32.074Z,14.60
2022-12-20T22:09:01.195Z,16.57
2022-12-20T22:11:30.054Z,15.87
2022-12-20T22:13:58.976Z,19.23
2022-12-20T22:16:31.085Z,14.23
2022-12-20T22:19:00.647Z,16.50
2022-12-20T22:21:31.075Z,18.77
2022-12-20T22:24:01.262Z,13.53
2022-12-20T22:26:31.959Z,13.23
2022-12-20T22:29:02.370Z,15.53
2022-12-20T22:31:32.591Z,14.20
2022-12-20T22:34:02.134Z,13.77
2022-12-20T22:36:30.704Z,14.50
2022-12-20T22:38:59.340Z,14.80
2022-12-20T22:41:30.230Z,17.13
2022-12-20T22:44:00.311Z,17.57
2022-12-20T22:49:19.101Z,13.40
2022-12-20T22:51:59.316Z,13.30
2022-12-20T22:54:35.128Z,12.53
2022-12-20T22:57:03.700Z,14.37
2022-12-20T22:59:32.975Z,14.23
2022-12-20T23:02:01.974Z,14.30
2022-12-20T23:04:32.073Z,15.00
2022-12-20T23:07:00.414Z,15.40
2022-12-20T23:09:29.355Z,16.57
2022-12-20T23:12:14.784Z,15.87
2022-12-20T23:15:04.112Z,14.33
2022-12-20T23:17:34.520Z,15.33
2022-12-20T23:20:21.700Z,16.23
2022-12-20T23:22:50.104Z,18.03
2022-12-20T23:25:21.272Z,18.10
2022-12-20T23:27:51.467Z,17.77
2022-12-20T23:30:22.530Z,19.43
2022-12-20T23:32:51.361Z,20.60
2022-12-20T23:35:22.147Z,20.77
2022-12-20T23:37:50.851Z,21.30
2022-12-20T23:40:19.854Z,23.13
2022-12-20T23:42:48.146Z,23.43
2022-12-20T23:45:16.701Z,22.27
2022-12-20T23:47:45.030Z,21.73
2022-12-20T23:50:14.042Z,19.10
2022-12-20T23:52:44.087Z,20.30
2022-12-20T23:55:12.672Z,20.43
2022-12-20T23:57:46.595Z,21.57
